sensor_id;sensor_type;location;lat;lon;timestamp;temperature;humidity
78438;SHT31;67736;51.978;5.656;2024-01-15T00:00:35;5.0;70.7
78438;SHT31;67736;51.978;5.656;2024-01-15T00:03:04;5.0;70.6
78438;SHT31;67736;51.978;5.656;2024-01-15T00:05:34;5.0;70.6
78438;SHT31;67736;51.978;5.656;2024-01-15T00:08:04;4.9;70.7
78438;SHT31;67736;51.978;5.656;2024-01-15T00:10:34;4.9;70.8
78438;SHT31;67736;51.978;5.656;2024-01-15T00:13:07;4.8;71.0
78438;SHT31;67736;51.978;5.656;2024-01-15T00:15:36;4.8;70.9
78438;SHT31;67736;51.978;5.656;2024-01-15T00:18:06;4.8;71.0
78438;SHT31;67736;51.978;5.656;2024-01-15T00:20:36;4.8;71.2
78438;SHT31;67736;51.978;5.656;2024-01-15T00:23:05;4.7;71.1
78438;SHT31;67736;51.978;5.656;2024-01-15T00:25:37;4.7;71.2
78438;SHT31;67736;51.978;5.656;2024-01-15T00:28:07;4.7;71.2
78438;SHT31;67736;51.978;5.656;2024-01-15T00:30:36;4.6;71.2
78438;SHT31;67736;51.978;5.656;2024-01-15T00:33:07;4.6;71.4
78438;SHT31;67736;51.978;5.656;2024-01-15T00:35:41;4.6;71.5
78438;SHT31;67736;51.978;5.656;2024-01-15T00:38:13;4.5;71.7
78438;SHT31;67736;51.978;5.656;2024-01-15T00:40:42;4.5;71.8
78438;SHT31;67736;51.978;5.656;2024-01-15T00:43:12;4.4;72.0
78438;SHT31;67736;51.978;5.656;2024-01-15T00:45:42;4.4;72.1
78438;SHT31;67736;51.978;5.656;2024-01-15T00:48:13;4.4;71.9
78438;SHT31;67736;51.978;5.656;2024-01-15T00:50:43;4.4;72.1
78438;SHT31;67736;51.978;5.656;2024-01-15T00:53:12;4.3;72.2
78438;SHT31;67736;51.978;5.656;2024-01-15T00:55:42;4.3;72.2
78438;SHT31;67736;51.978;5.656;2024-01-15T00:58:11;4.3;72.3
78438;SHT31;67736;51.978;5.656;2024-01-15T01:00:41;4.3;72.4
78438;SHT31;67736;51.978;5.656;2024-01-15T01:03:10;4.3;72.3
78438;SHT31;67736;51.978;5.656;2024-01-15T01:05:40;4.3;72.4
78438;SHT31;67736;51.978;5.656;2024-01-15T01:08:10;4.3;72.2
78438;SHT31;67736;51.978;5.656;2024-01-15T01:10:41;4.3;72.0
78438;SHT31;67736;51.978;5.656;2024-01-15T01:13:11;4.3;72.1
78438;SHT31;67736;51.978;5.656;2024-01-15T01:15:41;4.2;72.0
78438;SHT31;67736;51.978;5.656;2024-01-15T01:18:10;4.2;72.1
78438;SHT31;67736;51.978;5.656;2024-01-15T01:20:40;4.2;72.1
78438;SHT31;67736;51.978;5.656;2024-01-15T01:23:09;4.2;72.3
78438;SHT31;67736;51.978;5.656;2024-01-15T01:25:39;4.2;72.4
78438;SHT31;67736;51.978;5.656;2024-01-15T01:28:08;4.2;72.5
78438;SHT31;67736;51.978;5.656;2024-01-15T01:30:38;4.2;72.4
78438;SHT31;67736;51.978;5.656;2024-01-15T01:33:07;4.2;72.3
78438;SHT31;67736;51.978;5.656;2024-01-15T01:35:37;4.2;72.1
78438;SHT31;67736;51.978;5.656;2024-01-15T01:38:06;4.2;71.7
78438;SHT31;67736;51.978;5.656;2024-01-15T01:40:36;4.2;71.6
78438;SHT31;67736;51.978;5.656;2024-01-15T01:43:06;4.2;71.4
78438;SHT31;67736;51.978;5.656;2024-01-15T01:45:35;4.2;71.4
78438;SHT31;67736;51.978;5.656;2024-01-15T01:48:07;4.2;71.1
78438;SHT31;67736;51.978;5.656;2024-01-15T01:50:37;4.2;70.8
78438;SHT31;67736;51.978;5.656;2024-01-15T01:53:07;4.2;70.6
78438;SHT31;67736;51.978;5.656;2024-01-15T01:55:38;4.2;70.3
78438;SHT31;67736;51.978;5.656;2024-01-15T01:58:08;4.2;70.1
78438;SHT31;67736;51.978;5.656;2024-01-15T02:00:38;4.2;70.1
78438;SHT31;67736;51.978;5.656;2024-01-15T02:03:08;4.2;70.1
78438;SHT31;67736;51.978;5.656;2024-01-15T02:05:39;4.2;70.0
78438;SHT31;67736;51.978;5.656;2024-01-15T02:08:09;4.2;69.9
78438;SHT31;67736;51.978;5.656;2024-01-15T02:10:39;4.2;70.0
78438;SHT31;67736;51.978;5.656;2024-01-15T02:13:08;4.2;70.0
78438;SHT31;67736;51.978;5.656;2024-01-15T02:15:38;4.2;69.6
78438;SHT31;67736;51.978;5.656;2024-01-15T02:18:08;4.2;69.7
78438;SHT31;67736;51.978;5.656;2024-01-15T02:20:37;4.2;69.6
78438;SHT31;67736;51.978;5.656;2024-01-15T02:23:10;4.1;69.5
78438;SHT31;67736;51.978;5.656;2024-01-15T02:25:41;4.1;69.6
78438;SHT31;67736;51.978;5.656;2024-01-15T02:28:13;4.1;69.7
78438;SHT31;67736;51.978;5.656;2024-01-15T02:30:45;4.1;69.5
78438;SHT31;67736;51.978;5.656;2024-01-15T02:33:15;4.1;69.5
78438;SHT31;67736;51.978;5.656;2024-01-15T02:35:44;4.1;69.8
78438;SHT31;67736;51.978;5.656;2024-01-15T02:38:17;4.1;69.9
78438;SHT31;67736;51.978;5.656;2024-01-15T02:40:49;4.1;70.3
78438;SHT31;67736;51.978;5.656;2024-01-15T02:43:18;4.1;70.4
78438;SHT31;67736;51.978;5.656;2024-01-15T02:45:50;4.1;70.7
78438;SHT31;67736;51.978;5.656;2024-01-15T02:48:19;4.1;70.7
78438;SHT31;67736;51.978;5.656;2024-01-15T02:50:49;4.1;70.8
78438;SHT31;67736;51.978;5.656;2024-01-15T02:53:18;4.1;70.9
78438;SHT31;67736;51.978;5.656;2024-01-15T02:55:48;4.1;71.1
78438;SHT31;67736;51.978;5.656;2024-01-15T02:58:17;4.1;71.1
78438;SHT31;67736;51.978;5.656;2024-01-15T03:00:47;4.1;71.2
78438;SHT31;67736;51.978;5.656;2024-01-15T03:03:16;4.1;71.3
78438;SHT31;67736;51.978;5.656;2024-01-15T03:05:46;4.1;71.4
78438;SHT31;67736;51.978;5.656;2024-01-15T03:08:15;4.1;71.7
78438;SHT31;67736;51.978;5.656;2024-01-15T03:10:45;4.1;71.7
78438;SHT31;67736;51.978;5.656;2024-01-15T03:13:14;4.1;71.6
78438;SHT31;67736;51.978;5.656;2024-01-15T03:15:46;4.1;71.6
78438;SHT31;67736;51.978;5.656;2024-01-15T03:18:16;4.1;71.2
78438;SHT31;67736;51.978;5.656;2024-01-15T03:20:45;4.1;71.0
78438;SHT31;67736;51.978;5.656;2024-01-15T03:23:15;4.2;70.9
78438;SHT31;67736;51.978;5.656;2024-01-15T03:25:44;4.2;70.9
78438;SHT31;67736;51.978;5.656;2024-01-15T03:28:14;4.2;70.9
78438;SHT31;67736;51.978;5.656;2024-01-15T03:30:43;4.2;70.8
78438;SHT31;67736;51.978;5.656;2024-01-15T03:33:13;4.3;70.6
78438;SHT31;67736;51.978;5.656;2024-01-15T03:35:42;4.3;70.5
78438;SHT31;67736;51.978;5.656;2024-01-15T03:38:12;4.3;70.4
78438;SHT31;67736;51.978;5.656;2024-01-15T03:40:42;4.3;70.2
78438;SHT31;67736;51.978;5.656;2024-01-15T03:43:13;4.4;70.1
78438;SHT31;67736;51.978;5.656;2024-01-15T03:45:43;4.4;69.9
78438;SHT31;67736;51.978;5.656;2024-01-15T03:48:13;4.4;69.7
78438;SHT31;67736;51.978;5.656;2024-01-15T03:50:42;4.4;69.5
78438;SHT31;67736;51.978;5.656;2024-01-15T03:53:12;4.4;69.4
78438;SHT31;67736;51.978;5.656;2024-01-15T03:55:42;4.4;69.3
78438;SHT31;67736;51.978;5.656;2024-01-15T03:58:11;4.4;69.4
78438;SHT31;67736;51.978;5.656;2024-01-15T04:00:42;4.4;69.6
78438;SHT31;67736;51.978;5.656;2024-01-15T04:03:12;4.4;69.7
78438;SHT31;67736;51.978;5.656;2024-01-15T04:05:41;4.4;69.8
78438;SHT31;67736;51.978;5.656;2024-01-15T04:08:11;4.4;69.9
78438;SHT31;67736;51.978;5.656;2024-01-15T04:10:40;4.4;70.0
78438;SHT31;67736;51.978;5.656;2024-01-15T04:13:10;4.4;70.0
78438;SHT31;67736;51.978;5.656;2024-01-15T04:15:39;4.4;69.9
78438;SHT31;67736;51.978;5.656;2024-01-15T04:18:09;4.4;69.8
78438;SHT31;67736;51.978;5.656;2024-01-15T04:20:39;4.4;69.9
78438;SHT31;67736;51.978;5.656;2024-01-15T04:23:08;4.3;70.0
78438;SHT31;67736;51.978;5.656;2024-01-15T04:25:39;4.3;70.5
78438;SHT31;67736;51.978;5.656;2024-01-15T04:28:10;4.3;70.7
78438;SHT31;67736;51.978;5.656;2024-01-15T04:30:39;4.3;71.0
78438;SHT31;67736;51.978;5.656;2024-01-15T04:33:09;4.3;71.2
78438;SHT31;67736;51.978;5.656;2024-01-15T04:35:38;4.3;71.5
78438;SHT31;67736;51.978;5.656;2024-01-15T04:38:08;4.3;71.7
78438;SHT31;67736;51.978;5.656;2024-01-15T04:40:39;4.3;71.7
78438;SHT31;67736;51.978;5.656;2024-01-15T04:43:09;4.3;71.5
78438;SHT31;67736;51.978;5.656;2024-01-15T04:45:38;4.3;71.3
78438;SHT31;67736;51.978;5.656;2024-01-15T04:48:08;4.3;71.1
78438;SHT31;67736;51.978;5.656;2024-01-15T04:50:37;4.3;70.8
78438;SHT31;67736;51.978;5.656;2024-01-15T04:53:07;4.4;70.6
78438;SHT31;67736;51.978;5.656;2024-01-15T04:55:36;4.4;70.4
78438;SHT31;67736;51.978;5.656;2024-01-15T04:58:06;4.4;70.2
78438;SHT31;67736;51.978;5.656;2024-01-15T05:00:35;4.4;70.0
78438;SHT31;67736;51.978;5.656;2024-01-15T05:03:06;4.4;69.8
78438;SHT31;67736;51.978;5.656;2024-01-15T05:05:35;4.4;69.8
78438;SHT31;67736;51.978;5.656;2024-01-15T05:08:05;4.4;69.7
78438;SHT31;67736;51.978;5.656;2024-01-15T05:10:37;4.4;69.7
78438;SHT31;67736;51.978;5.656;2024-01-15T05:13:08;4.4;69.8
78438;SHT31;67736;51.978;5.656;2024-01-15T05:15:37;4.4;69.9
78438;SHT31;67736;51.978;5.656;2024-01-15T05:18:07;4.4;70.0
78438;SHT31;67736;51.978;5.656;2024-01-15T05:20:36;4.4;70.2
78438;SHT31;67736;51.978;5.656;2024-01-15T05:23:06;4.4;70.4
78438;SHT31;67736;51.978;5.656;2024-01-15T05:25:36;4.4;70.6
78438;SHT31;67736;51.978;5.656;2024-01-15T05:28:06;4.4;70.8
78438;SHT31;67736;51.978;5.656;2024-01-15T05:30:36;4.4;71.0
78438;SHT31;67736;51.978;5.656;2024-01-15T05:33:06;4.3;71.3
78438;SHT31;67736;51.978;5.656;2024-01-15T05:35:35;4.3;71.6
78438;SHT31;67736;51.978;5.656;2024-01-15T05:38:07;4.3;71.7
78438;SHT31;67736;51.978;5.656;2024-01-15T05:40:37;4.3;71.9
78438;SHT31;67736;51.978;5.656;2024-01-15T05:43:06;4.3;72.1
78438;SHT31;67736;51.978;5.656;2024-01-15T05:45:42;4.2;72.4
78438;SHT31;67736;51.978;5.656;2024-01-15T05:48:12;4.2;72.6
78438;SHT31;67736;51.978;5.656;2024-01-15T05:50:42;4.2;72.8
78438;SHT31;67736;51.978;5.656;2024-01-15T05:53:11;4.2;72.9
78438;SHT31;67736;51.978;5.656;2024-01-15T05:55:42;4.2;73.1
78438;SHT31;67736;51.978;5.656;2024-01-15T05:58:11;4.2;73.2
78438;SHT31;67736;51.978;5.656;2024-01-15T06:00:41;4.2;73.1
78438;SHT31;67736;51.978;5.656;2024-01-15T06:03:12;4.2;73.1
78438;SHT31;67736;51.978;5.656;2024-01-15T06:05:42;4.2;73.1
78438;SHT31;67736;51.978;5.656;2024-01-15T06:08:11;4.2;73.2
78438;SHT31;67736;51.978;5.656;2024-01-15T06:10:42;4.1;73.4
78438;SHT31;67736;51.978;5.656;2024-01-15T06:13:11;4.1;73.5
78438;SHT31;67736;51.978;5.656;2024-01-15T06:15:41;4.1;73.6
78438;SHT31;67736;51.978;5.656;2024-01-15T06:18:10;4.1;73.7
78438;SHT31;67736;51.978;5.656;2024-01-15T06:20:40;4.1;73.9
78438;SHT31;67736;51.978;5.656;2024-01-15T06:23:10;4.1;73.9
78438;SHT31;67736;51.978;5.656;2024-01-15T06:25:39;4.1;74.1
78438;SHT31;67736;51.978;5.656;2024-01-15T06:28:09;4.1;74.2
78438;SHT31;67736;51.978;5.656;2024-01-15T06:30:38;4.1;74.1
78438;SHT31;67736;51.978;5.656;2024-01-15T06:33:08;4.1;74.1
78438;SHT31;67736;51.978;5.656;2024-01-15T06:35:37;4.1;74.2
78438;SHT31;67736;51.978;5.656;2024-01-15T06:38:07;4.1;74.0
78438;SHT31;67736;51.978;5.656;2024-01-15T06:40:36;4.1;73.8
78438;SHT31;67736;51.978;5.656;2024-01-15T06:43:09;4.1;73.5
78438;SHT31;67736;51.978;5.656;2024-01-15T06:45:38;4.1;73.4
78438;SHT31;67736;51.978;5.656;2024-01-15T06:48:10;4.0;73.3
78438;SHT31;67736;51.978;5.656;2024-01-15T06:50:41;4.0;73.5
78438;SHT31;67736;51.978;5.656;2024-01-15T06:53:11;4.0;73.6
78438;SHT31;67736;51.978;5.656;2024-01-15T06:55:40;4.0;73.5
78438;SHT31;67736;51.978;5.656;2024-01-15T06:58:10;4.0;73.5
78438;SHT31;67736;51.978;5.656;2024-01-15T07:00:41;4.0;73.5
78438;SHT31;67736;51.978;5.656;2024-01-15T07:03:11;4.0;73.6
78438;SHT31;67736;51.978;5.656;2024-01-15T07:05:40;4.0;73.6
78438;SHT31;67736;51.978;5.656;2024-01-15T07:08:10;4.0;73.7
78438;SHT31;67736;51.978;5.656;2024-01-15T07:10:39;4.0;73.6
78438;SHT31;67736;51.978;5.656;2024-01-15T07:13:09;4.0;73.4
78438;SHT31;67736;51.978;5.656;2024-01-15T07:15:39;4.1;73.4
78438;SHT31;67736;51.978;5.656;2024-01-15T07:18:08;4.1;73.3
78438;SHT31;67736;51.978;5.656;2024-01-15T07:20:38;4.1;73.4
78438;SHT31;67736;51.978;5.656;2024-01-15T07:23:07;4.1;73.5
78438;SHT31;67736;51.978;5.656;2024-01-15T07:25:37;4.1;73.5
78438;SHT31;67736;51.978;5.656;2024-01-15T07:28:08;4.1;73.4
78438;SHT31;67736;51.978;5.656;2024-01-15T07:30:37;4.1;73.4
78438;SHT31;67736;51.978;5.656;2024-01-15T07:33:07;4.1;73.4
78438;SHT31;67736;51.978;5.656;2024-01-15T07:35:37;4.1;73.4
78438;SHT31;67736;51.978;5.656;2024-01-15T07:38:06;4.1;73.4
78438;SHT31;67736;51.978;5.656;2024-01-15T07:40:37;4.1;73.2
78438;SHT31;67736;51.978;5.656;2024-01-15T07:43:07;4.1;73.3
78438;SHT31;67736;51.978;5.656;2024-01-15T07:45:38;4.1;73.3
78438;SHT31;67736;51.978;5.656;2024-01-15T07:48:10;4.1;73.1
78438;SHT31;67736;51.978;5.656;2024-01-15T07:50:41;4.1;72.9
78438;SHT31;67736;51.978;5.656;2024-01-15T07:53:11;4.1;73.0
78438;SHT31;67736;51.978;5.656;2024-01-15T07:55:40;4.0;73.2
78438;SHT31;67736;51.978;5.656;2024-01-15T07:58:10;4.0;73.4
78438;SHT31;67736;51.978;5.656;2024-01-15T08:00:39;4.0;73.6
78438;SHT31;67736;51.978;5.656;2024-01-15T08:03:09;3.9;73.9
78438;SHT31;67736;51.978;5.656;2024-01-15T08:05:38;3.9;74.1
78438;SHT31;67736;51.978;5.656;2024-01-15T08:08:08;3.9;74.2
78438;SHT31;67736;51.978;5.656;2024-01-15T08:10:37;3.9;74.2
78438;SHT31;67736;51.978;5.656;2024-01-15T08:13:07;3.9;74.3
78438;SHT31;67736;51.978;5.656;2024-01-15T08:15:37;3.9;74.3
78438;SHT31;67736;51.978;5.656;2024-01-15T08:18:07;3.9;74.4
78438;SHT31;67736;51.978;5.656;2024-01-15T08:20:36;3.9;74.3
78438;SHT31;67736;51.978;5.656;2024-01-15T08:23:06;3.9;74.3
78438;SHT31;67736;51.978;5.656;2024-01-15T08:25:38;3.8;74.3
78438;SHT31;67736;51.978;5.656;2024-01-15T08:28:08;3.8;74.5
78438;SHT31;67736;51.978;5.656;2024-01-15T08:30:37;3.8;74.6
78438;SHT31;67736;51.978;5.656;2024-01-15T08:33:07;3.8;74.8
78438;SHT31;67736;51.978;5.656;2024-01-15T08:35:36;3.8;74.9
78438;SHT31;67736;51.978;5.656;2024-01-15T08:38:08;3.8;75.0
78438;SHT31;67736;51.978;5.656;2024-01-15T08:40:37;3.8;75.0
78438;SHT31;67736;51.978;5.656;2024-01-15T08:43:09;3.9;75.0
78438;SHT31;67736;51.978;5.656;2024-01-15T08:45:38;3.9;74.8
78438;SHT31;67736;51.978;5.656;2024-01-15T08:48:08;3.9;74.6
78438;SHT31;67736;51.978;5.656;2024-01-15T08:50:37;4.0;74.4
78438;SHT31;67736;51.978;5.656;2024-01-15T08:53:08;4.0;74.3
78438;SHT31;67736;51.978;5.656;2024-01-15T08:55:38;4.0;74.1
78438;SHT31;67736;51.978;5.656;2024-01-15T08:58:09;4.0;74.2
78438;SHT31;67736;51.978;5.656;2024-01-15T09:00:39;4.1;74.1
78438;SHT31;67736;51.978;5.656;2024-01-15T09:03:09;4.1;74.1
78438;SHT31;67736;51.978;5.656;2024-01-15T09:05:39;4.1;74.0
78438;SHT31;67736;51.978;5.656;2024-01-15T09:08:08;4.1;73.8
78438;SHT31;67736;51.978;5.656;2024-01-15T09:10:38;4.1;73.8
78438;SHT31;67736;51.978;5.656;2024-01-15T09:13:08;4.1;73.8
78438;SHT31;67736;51.978;5.656;2024-01-15T09:15:37;4.2;73.8
78438;SHT31;67736;51.978;5.656;2024-01-15T09:18:07;4.2;73.6
78438;SHT31;67736;51.978;5.656;2024-01-15T09:20:37;4.2;73.4
78438;SHT31;67736;51.978;5.656;2024-01-15T09:23:07;4.2;73.2
78438;SHT31;67736;51.978;5.656;2024-01-15T09:25:36;4.2;73.1
78438;SHT31;67736;51.978;5.656;2024-01-15T09:28:06;4.2;73.3
78438;SHT31;67736;51.978;5.656;2024-01-15T09:30:36;4.2;73.5
78438;SHT31;67736;51.978;5.656;2024-01-15T09:33:06;4.2;73.5
78438;SHT31;67736;51.978;5.656;2024-01-15T09:35:35;4.3;73.7
78438;SHT31;67736;51.978;5.656;2024-01-15T09:38:05;4.3;73.4
78438;SHT31;67736;51.978;5.656;2024-01-15T09:40:38;4.3;73.0
78438;SHT31;67736;51.978;5.656;2024-01-15T09:43:08;4.3;72.6
78438;SHT31;67736;51.978;5.656;2024-01-15T09:45:38;4.3;72.8
78438;SHT31;67736;51.978;5.656;2024-01-15T09:48:09;4.3;72.8
78438;SHT31;67736;51.978;5.656;2024-01-15T09:50:38;4.2;72.7
78438;SHT31;67736;51.978;5.656;2024-01-15T09:53:09;4.2;72.7
78438;SHT31;67736;51.978;5.656;2024-01-15T09:55:39;4.2;72.8
78438;SHT31;67736;51.978;5.656;2024-01-15T09:58:10;4.2;73.2
78438;SHT31;67736;51.978;5.656;2024-01-15T10:00:41;4.2;73.3
78438;SHT31;67736;51.978;5.656;2024-01-15T10:03:13;4.2;73.5
78438;SHT31;67736;51.978;5.656;2024-01-15T10:05:43;4.2;73.5
78438;SHT31;67736;51.978;5.656;2024-01-15T10:08:14;4.2;73.7
78438;SHT31;67736;51.978;5.656;2024-01-15T10:10:44;4.2;73.8
78438;SHT31;67736;51.978;5.656;2024-01-15T10:13:15;4.2;73.8
78438;SHT31;67736;51.978;5.656;2024-01-15T10:15:47;4.2;73.7
78438;SHT31;67736;51.978;5.656;2024-01-15T10:18:16;4.2;73.4
78438;SHT31;67736;51.978;5.656;2024-01-15T10:20:47;4.2;73.6
78438;SHT31;67736;51.978;5.656;2024-01-15T10:23:16;4.3;73.3
78438;SHT31;67736;51.978;5.656;2024-01-15T10:25:46;4.3;73.2
78438;SHT31;67736;51.978;5.656;2024-01-15T10:28:16;4.3;73.1
78438;SHT31;67736;51.978;5.656;2024-01-15T10:30:45;4.3;73.1
78438;SHT31;67736;51.978;5.656;2024-01-15T10:33:15;4.3;73.2
78438;SHT31;67736;51.978;5.656;2024-01-15T10:35:45;4.3;73.6
78438;SHT31;67736;51.978;5.656;2024-01-15T10:38:15;4.4;74.0
78438;SHT31;67736;51.978;5.656;2024-01-15T10:40:45;4.4;74.1
78438;SHT31;67736;51.978;5.656;2024-01-15T10:43:15;4.4;74.2
78438;SHT31;67736;51.978;5.656;2024-01-15T10:45:45;4.4;74.4
78438;SHT31;67736;51.978;5.656;2024-01-15T10:48:17;4.5;74.7
78438;SHT31;67736;51.978;5.656;2024-01-15T10:50:47;4.5;74.2
78438;SHT31;67736;51.978;5.656;2024-01-15T10:53:17;4.5;74.0
78438;SHT31;67736;51.978;5.656;2024-01-15T10:55:47;4.6;73.2
78438;SHT31;67736;51.978;5.656;2024-01-15T10:58:18;4.6;72.1
78438;SHT31;67736;51.978;5.656;2024-01-15T11:00:50;4.6;71.8
78438;SHT31;67736;51.978;5.656;2024-01-15T11:03:20;4.7;71.5
78438;SHT31;67736;51.978;5.656;2024-01-15T11:05:50;4.7;71.6
78438;SHT31;67736;51.978;5.656;2024-01-15T11:08:20;4.7;71.5
78438;SHT31;67736;51.978;5.656;2024-01-15T11:10:51;4.7;71.7
78438;SHT31;67736;51.978;5.656;2024-01-15T11:13:41;4.7;72.1
78438;SHT31;67736;51.978;5.656;2024-01-15T11:16:13;4.8;72.2
78438;SHT31;67736;51.978;5.656;2024-01-15T11:19:05;4.8;71.9
78438;SHT31;67736;51.978;5.656;2024-01-15T11:21:43;4.9;72.2
78438;SHT31;67736;51.978;5.656;2024-01-15T11:24:34;4.9;72.4
78438;SHT31;67736;51.978;5.656;2024-01-15T11:27:05;5.0;72.3
78438;SHT31;67736;51.978;5.656;2024-01-15T11:29:36;5.0;71.9
78438;SHT31;67736;51.978;5.656;2024-01-15T11:32:07;5.0;71.3
78438;SHT31;67736;51.978;5.656;2024-01-15T11:34:57;5.1;71.7
78438;SHT31;67736;51.978;5.656;2024-01-15T11:40:23;5.1;71.7
78438;SHT31;67736;51.978;5.656;2024-01-15T11:42:57;5.1;71.9
78438;SHT31;67736;51.978;5.656;2024-01-15T11:45:27;5.1;71.9
78438;SHT31;67736;51.978;5.656;2024-01-15T11:48:13;5.1;71.8
78438;SHT31;67736;51.978;5.656;2024-01-15T11:50:44;5.0;71.5
78438;SHT31;67736;51.978;5.656;2024-01-15T11:53:17;5.0;71.7
78438;SHT31;67736;51.978;5.656;2024-01-15T11:55:51;5.0;71.7
78438;SHT31;67736;51.978;5.656;2024-01-15T11:58:21;5.0;71.8
78438;SHT31;67736;51.978;5.656;2024-01-15T12:00:51;5.0;72.2
78438;SHT31;67736;51.978;5.656;2024-01-15T12:03:23;5.0;72.4
78438;SHT31;67736;51.978;5.656;2024-01-15T12:05:54;5.0;72.5
78438;SHT31;67736;51.978;5.656;2024-01-15T12:08:25;5.0;72.5
78438;SHT31;67736;51.978;5.656;2024-01-15T12:10:55;5.0;72.0
78438;SHT31;67736;51.978;5.656;2024-01-15T12:13:24;5.0;71.7
78438;SHT31;67736;51.978;5.656;2024-01-15T12:15:54;5.0;71.1
78438;SHT31;67736;51.978;5.656;2024-01-15T12:18:25;5.0;70.9
78438;SHT31;67736;51.978;5.656;2024-01-15T12:20:56;5.0;71.4
78438;SHT31;67736;51.978;5.656;2024-01-15T12:23:26;4.9;71.9
78438;SHT31;67736;51.978;5.656;2024-01-15T12:25:55;4.9;72.3
78438;SHT31;67736;51.978;5.656;2024-01-15T12:28:29;4.9;72.4
78438;SHT31;67736;51.978;5.656;2024-01-15T12:30:59;4.9;72.2
78438;SHT31;67736;51.978;5.656;2024-01-15T12:33:33;4.9;72.2
78438;SHT31;67736;51.978;5.656;2024-01-15T12:36:03;4.9;72.1
78438;SHT31;67736;51.978;5.656;2024-01-15T12:38:33;4.9;72.4
78438;SHT31;67736;51.978;5.656;2024-01-15T12:41:03;4.8;72.7
78438;SHT31;67736;51.978;5.656;2024-01-15T12:43:33;4.8;73.1
78438;SHT31;67736;51.978;5.656;2024-01-15T12:46:02;4.8;73.5
78438;SHT31;67736;51.978;5.656;2024-01-15T12:48:32;4.8;73.7
78438;SHT31;67736;51.978;5.656;2024-01-15T12:51:05;4.7;73.7
78438;SHT31;67736;51.978;5.656;2024-01-15T12:53:35;4.7;73.4
78438;SHT31;67736;51.978;5.656;2024-01-15T12:56:05;4.7;73.3
78438;SHT31;67736;51.978;5.656;2024-01-15T12:58:35;4.7;72.9
78438;SHT31;67736;51.978;5.656;2024-01-15T13:01:05;4.7;73.2
78438;SHT31;67736;51.978;5.656;2024-01-15T13:03:34;4.7;73.2
78438;SHT31;67736;51.978;5.656;2024-01-15T13:06:04;4.7;73.5
78438;SHT31;67736;51.978;5.656;2024-01-15T13:08:34;4.7;72.3
78438;SHT31;67736;51.978;5.656;2024-01-15T13:11:04;4.7;71.6
78438;SHT31;67736;51.978;5.656;2024-01-15T13:13:34;4.7;71.6
78438;SHT31;67736;51.978;5.656;2024-01-15T13:16:05;4.7;71.5
78438;SHT31;67736;51.978;5.656;2024-01-15T13:18:35;4.7;70.7
78438;SHT31;67736;51.978;5.656;2024-01-15T13:21:05;4.7;70.6
78438;SHT31;67736;51.978;5.656;2024-01-15T13:23:34;4.7;70.6
78438;SHT31;67736;51.978;5.656;2024-01-15T13:26:04;4.7;71.0
78438;SHT31;67736;51.978;5.656;2024-01-15T13:28:34;4.7;71.1
78438;SHT31;67736;51.978;5.656;2024-01-15T13:31:04;4.7;71.1
78438;SHT31;67736;51.978;5.656;2024-01-15T13:33:33;4.7;70.9
78438;SHT31;67736;51.978;5.656;2024-01-15T13:36:03;4.7;71.2
78438;SHT31;67736;51.978;5.656;2024-01-15T13:38:37;4.7;71.1
78438;SHT31;67736;51.978;5.656;2024-01-15T13:41:08;4.7;71.3
78438;SHT31;67736;51.978;5.656;2024-01-15T13:43:38;4.7;71.3
78438;SHT31;67736;51.978;5.656;2024-01-15T13:46:07;4.7;70.3
78438;SHT31;67736;51.978;5.656;2024-01-15T13:48:37;4.7;70.0
78438;SHT31;67736;51.978;5.656;2024-01-15T13:51:07;4.7;69.7
78438;SHT31;67736;51.978;5.656;2024-01-15T13:53:37;4.7;70.0
78438;SHT31;67736;51.978;5.656;2024-01-15T13:56:07;4.6;70.3
78438;SHT31;67736;51.978;5.656;2024-01-15T13:58:40;4.6;70.3
78438;SHT31;67736;51.978;5.656;2024-01-15T14:01:10;4.6;70.5
78438;SHT31;67736;51.978;5.656;2024-01-15T14:03:40;4.6;70.7
78438;SHT31;67736;51.978;5.656;2024-01-15T14:06:12;4.6;70.6
78438;SHT31;67736;51.978;5.656;2024-01-15T14:08:41;4.6;70.3
78438;SHT31;67736;51.978;5.656;2024-01-15T14:11:10;4.6;70.5
78438;SHT31;67736;51.978;5.656;2024-01-15T14:13:40;4.6;70.7
78438;SHT31;67736;51.978;5.656;2024-01-15T14:16:10;4.6;71.0
78438;SHT31;67736;51.978;5.656;2024-01-15T14:18:39;4.6;71.2
78438;SHT31;67736;51.978;5.656;2024-01-15T14:21:09;4.6;71.4
78438;SHT31;67736;51.978;5.656;2024-01-15T14:23:38;4.6;71.4
78438;SHT31;67736;51.978;5.656;2024-01-15T14:26:08;4.6;71.7
78438;SHT31;67736;51.978;5.656;2024-01-15T14:28:37;4.5;71.8
78438;SHT31;67736;51.978;5.656;2024-01-15T14:31:07;4.5;72.1
78438;SHT31;67736;51.978;5.656;2024-01-15T14:33:37;4.5;72.1
78438;SHT31;67736;51.978;5.656;2024-01-15T14:36:07;4.5;71.6
78438;SHT31;67736;51.978;5.656;2024-01-15T14:38:36;4.5;71.7
78438;SHT31;67736;51.978;5.656;2024-01-15T14:41:06;4.5;71.9
78438;SHT31;67736;51.978;5.656;2024-01-15T14:43:35;4.5;72.2
78438;SHT31;67736;51.978;5.656;2024-01-15T14:46:05;4.4;72.3
78438;SHT31;67736;51.978;5.656;2024-01-15T14:48:35;4.4;72.1
78438;SHT31;67736;51.978;5.656;2024-01-15T14:51:04;4.4;71.1
78438;SHT31;67736;51.978;5.656;2024-01-15T14:53:34;4.4;70.6
78438;SHT31;67736;51.978;5.656;2024-01-15T14:56:04;4.4;70.3
78438;SHT31;67736;51.978;5.656;2024-01-15T14:58:35;4.4;70.0
78438;SHT31;67736;51.978;5.656;2024-01-15T15:01:04;4.4;70.1
78438;SHT31;67736;51.978;5.656;2024-01-15T15:03:34;4.4;70.4
78438;SHT31;67736;51.978;5.656;2024-01-15T15:06:03;4.4;70.4
78438;SHT31;67736;51.978;5.656;2024-01-15T15:08:34;4.4;70.5
78438;SHT31;67736;51.978;5.656;2024-01-15T15:11:06;4.4;70.8
78438;SHT31;67736;51.978;5.656;2024-01-15T15:13:35;4.4;71.1
78438;SHT31;67736;51.978;5.656;2024-01-15T15:16:05;4.4;71.5
78438;SHT31;67736;51.978;5.656;2024-01-15T15:18:35;4.4;71.7
78438;SHT31;67736;51.978;5.656;2024-01-15T15:21:04;4.4;71.8
78438;SHT31;67736;51.978;5.656;2024-01-15T15:23:34;4.4;71.8
78438;SHT31;67736;51.978;5.656;2024-01-15T15:26:05;4.5;71.8
78438;SHT31;67736;51.978;5.656;2024-01-15T15:28:36;4.5;71.9
78438;SHT31;67736;51.978;5.656;2024-01-15T15:31:06;4.5;71.8
78438;SHT31;67736;51.978;5.656;2024-01-15T15:33:38;4.5;71.6
78438;SHT31;67736;51.978;5.656;2024-01-15T15:36:08;4.5;71.4
78438;SHT31;67736;51.978;5.656;2024-01-15T15:38:38;4.5;71.3
78438;SHT31;67736;51.978;5.656;2024-01-15T15:41:07;4.5;71.3
78438;SHT31;67736;51.978;5.656;2024-01-15T15:43:37;4.5;71.2
78438;SHT31;67736;51.978;5.656;2024-01-15T15:46:06;4.5;71.1
78438;SHT31;67736;51.978;5.656;2024-01-15T15:48:38;4.5;70.9
78438;SHT31;67736;51.978;5.656;2024-01-15T15:51:07;4.5;70.6
78438;SHT31;67736;51.978;5.656;2024-01-15T15:53:37;4.5;70.7
78438;SHT31;67736;51.978;5.656;2024-01-15T15:56:06;4.5;70.6
78438;SHT31;67736;51.978;5.656;2024-01-15T15:58:37;4.5;70.6
78438;SHT31;67736;51.978;5.656;2024-01-15T16:01:09;4.5;70.8
78438;SHT31;67736;51.978;5.656;2024-01-15T16:03:39;4.5;70.6
78438;SHT31;67736;51.978;5.656;2024-01-15T16:06:08;4.5;70.6
78438;SHT31;67736;51.978;5.656;2024-01-15T16:08:38;4.5;70.7
78438;SHT31;67736;51.978;5.656;2024-01-15T16:11:08;4.5;70.7
78438;SHT31;67736;51.978;5.656;2024-01-15T16:13:37;4.5;70.9
78438;SHT31;67736;51.978;5.656;2024-01-15T16:16:08;4.5;71.0
78438;SHT31;67736;51.978;5.656;2024-01-15T16:18:37;4.5;70.7
78438;SHT31;67736;51.978;5.656;2024-01-15T16:21:07;4.4;70.3
78438;SHT31;67736;51.978;5.656;2024-01-15T16:23:36;4.4;70.1
78438;SHT31;67736;51.978;5.656;2024-01-15T16:26:06;4.4;70.2
78438;SHT31;67736;51.978;5.656;2024-01-15T16:28:35;4.4;70.5
78438;SHT31;67736;51.978;5.656;2024-01-15T16:31:05;4.4;70.3
78438;SHT31;67736;51.978;5.656;2024-01-15T16:33:35;4.4;70.3
78438;SHT31;67736;51.978;5.656;2024-01-15T16:36:04;4.4;70.4
78438;SHT31;67736;51.978;5.656;2024-01-15T16:38:34;4.4;70.5